Roseburg, OR

1:16 PM PDT on July 27, 2016 (GMT -0700)
Hucrest | | Change Station

Elev 425 ft 43.22 °N, 123.38 °W | Updated 6 minutes ago

Clear
Clear
87.2 °F
Feels Like 85 °F
N
5.0
Wind Variable Wind from North
Gusts 10.0 mph

Today
High -- | Low -- °F
--% Chance of Precip.
Yesterday
High -- | Low -- °F
Precip. -- in
Pressure 30.04 in
Visibility 10.0 miles
Clouds Clear
Heat Index 85 °F
Dew Point 55 °F
Humidity 33%
Rainfall 0.00 in
Snow Depth Not available.
5:59 AM 8:40 PM
Last Quarter, 40% visible
METAR KRBG 271953Z AUTO 01013G21KT 10SM CLR 30/11 A3005 RMK AO2 SLP171 T03000111
Pressure 30.04 in
Visibility 10.0 miles
Clouds Clear
Heat Index 85 °F
Dew Point 55 °F
Humidity 33%
Rainfall 0.00 in
Snow Depth Not available.
5:59 AM 8:40 PM
Last Quarter, 40% visible
METAR KRBG 271953Z AUTO 01013G21KT 10SM CLR 30/11 A3005 RMK AO2 SLP171 T03000111

10-Day Weather Forecast

Almanac

Astronomy

Jul. 27, 2016 Rise Set
Actual Time
Civil Twilight
Nautical Twilight
Astronomical Twilight
Moon
Length of Visible Light
Length of Day
Tomorrow will be .
, % of the Moon is Illuminated

Today's Extremes

State Highs State Lows

Community

WunderPhotos

Upload Photos

1,927,931 photos uploaded!

WunderBlog® & News

Nearby

Air Quality

  Air Quality AQ Index Pollutant
Not available.

Snow Depth

Station Depth Elevation

Earthquake Activity

City Distance Mag. Time & Date
Minimum magnitude displayed is 2.5.

Coastal Water Temperatures

Place Temperature

Stations

Nearby Weather Stations

Station Location Temp. Windchill Dew Point Humidity Wind Precip. Elev Updated Type
                   

Watches & Warnings

There are currently no watches in effect.